Time;durP1;ratioP1;P1;durP2;ratioP2;P2;SDS_P1;SDS_P2;PMS_P1;PMS_P2;Temp;Humidity;BMP_temperature;BMP_pressure;BME280_temperature;BME280_humidity;BME280_pressure;Samples;Min_cycle;Max_cycle;Signal;HPM_P1;HPM_P2
2022/03/27 00:01:19;;;;;;;;;;;;;;;21.52;36.94;103050.59;5070781;28;19956;-78
2022/03/27 00:03:44;;;;;;;;;;;;;;;21.52;37.01;103045.97;5054868;28;19936;-78
2022/03/27 00:06:09;;;;;;;;;;;;;;;21.51;36.76;103049.78;5054669;28;19920;-76
2022/03/27 00:08:35;;;;;;;;;;;;;;;21.51;36.78;103047.03;5071208;28;19917;-77
2022/03/27 00:13:44;;;;;;;;;;;;;;;21.49;36.73;103040.97;5054981;28;20016;-78
2022/03/27 00:16:09;;;;;;;;;;;;;;;21.48;36.94;103046.75;5036782;28;19956;-77
2022/03/27 00:18:38;;;;;;;;;;;;;;;21.49;36.66;103053.88;5054598;28;19921;-76
2022/03/27 00:21:04;;;;;;;;;;;;;;;21.49;37.04;103051.13;5036812;28;19964;-76
2022/03/27 00:23:29;;;;;;;;;;;;;;;21.48;36.97;103050.31;5054431;28;19931;-76
2022/03/27 00:25:54;;;;;;;;;;;;;;;21.48;36.73;103053.06;5054200;28;20000;-76
2022/03/27 00:28:20;;;;;;;;;;;;;;;21.49;36.79;103048.38;5054783;28;19928;-77
2022/03/27 00:30:45;;;;;;;;;;;;;;;21.49;36.96;103048.38;5069649;28;19959;-77
2022/03/27 00:33:10;;;;;;;;;;;;;;;21.50;36.80;103052.81;5054089;28;20376;-76
2022/03/27 00:35:36;;;;;;;;;;;;;;;21.49;37.04;103045.63;5069951;28;20012;-77
2022/03/27 00:38:01;;;;;;;;;;;;;;;21.49;36.87;103043.72;5052717;28;19928;-76
2022/03/27 00:40:27;;;;;;;;;;;;;;;21.49;37.00;103040.13;5053864;28;19959;-76
2022/03/27 00:42:52;;;;;;;;;;;;;;;21.50;37.06;103039.06;5069212;28;20369;-77
2022/03/27 00:45:17;;;;;;;;;;;;;;;21.48;36.93;103039.31;5069249;28;20016;-77
2022/03/27 00:47:44;;;;;;;;;;;;;;;21.49;37.00;103040.97;5036111;28;19928;-77
2022/03/27 00:50:09;;;;;;;;;;;;;;;21.48;36.97;103035.75;5036047;28;19925;-77
2022/03/27 00:52:35;;;;;;;;;;;;;;;21.48;37.09;103041.25;5036452;28;19923;-76
2022/03/27 00:55:00;;;;;;;;;;;;;;;21.48;36.91;103042.06;5069477;28;20371;-76
2022/03/27 00:57:26;;;;;;;;;;;;;;;21.48;36.79;103042.06;5035715;28;20011;-77
2022/03/27 00:59:51;;;;;;;;;;;;;;;21.48;36.80;103038.50;5053729;28;19917;-77
2022/03/27 01:02:17;;;;;;;;;;;;;;;21.48;36.84;103033.00;5054277;28;19928;-77
2022/03/27 01:04:44;;;;;;;;;;;;;;;21.48;37.10;103033.00;5053841;28;19970;-78
2022/03/27 01:07:13;;;;;;;;;;;;;;;21.47;37.09;103034.06;5053796;28;19921;-77
2022/03/27 01:09:38;;;;;;;;;;;;;;;21.46;36.63;103036.00;5053790;28;19916;-77
2022/03/27 01:12:21;;;;;;;;;;;;;;;21.47;36.71;103036.81;5068806;28;20292;-76
2022/03/27 01:14:47;;;;;;;;;;;;;;;21.46;37.11;103037.91;5035822;28;20322;-77
2022/03/27 01:17:17;;;;;;;;;;;;;;;21.45;36.92;103034.34;5053598;28;20360;-77
2022/03/27 01:19:46;;;;;;;;;;;;;;;21.45;37.01;103034.34;5035795;28;19976;-77
2022/03/27 01:22:12;;;;;;;;;;;;;;;21.45;36.78;103033.53;5053701;28;19916;-77
2022/03/27 01:24:38;;;;;;;;;;;;;;;21.46;37.00;103037.91;5053742;28;19921;-77
2022/03/27 01:27:03;;;;;;;;;;;;;;;21.45;37.04;103037.09;5053557;28;20273;-77
2022/03/27 01:29:29;;;;;;;;;;;;;;;21.45;37.07;103034.34;5051823;28;20435;-77
2022/03/27 01:31:55;;;;;;;;;;;;;;;21.45;36.88;103030.78;5053424;28;19924;-77
2022/03/27 01:34:20;;;;;;;;;;;;;;;21.44;37.07;103026.34;5053884;28;19921;-77
2022/03/27 01:36:46;;;;;;;;;;;;;;;21.43;36.75;103022.78;5053496;28;20387;-78
2022/03/27 01:39:12;;;;;;;;;;;;;;;21.43;36.92;103028.28;5053596;28;20327;-76
2022/03/27 01:41:39;;;;;;;;;;;;;;;21.43;36.85;103028.28;5069781;28;20324;-77
2022/03/27 01:44:09;;;;;;;;;;;;;;;21.44;36.98;103029.91;5053408;28;20456;-76
2022/03/27 01:46:37;;;;;;;;;;;;;;;21.44;36.82;103029.91;5035608;28;20362;-76
2022/03/27 01:49:03;;;;;;;;;;;;;;;21.44;37.00;103029.09;5053344;28;19917;-77
2022/03/27 01:51:29;;;;;;;;;;;;;;;21.43;36.76;103027.44;5053407;28;20400;-77
2022/03/27 01:53:54;;;;;;;;;;;;;;;21.42;36.99;103026.63;5053307;28;19924;-76
2022/03/27 01:56:20;;;;;;;;;;;;;;;21.42;37.08;103028.53;5053119;28;20055;-76
2022/03/27 01:58:45;;;;;;;;;;;;;;;21.42;37.20;103023.03;5053326;28;20398;-77
2022/03/27 02:01:10;;;;;;;;;;;;;;;21.42;37.08;103031.28;5069000;28;19925;-77
2022/03/27 02:03:36;;;;;;;;;;;;;;;21.41;37.13;103030.44;5035288;28;19921;-76
2022/03/27 02:06:05;;;;;;;;;;;;;;;21.41;36.99;103018.63;5053246;28;19921;-77
2022/03/27 02:08:34;;;;;;;;;;;;;;;21.42;37.11;103020.28;5068048;28;20388;-77
2022/03/27 02:11:00;;;;;;;;;;;;;;;21.41;36.83;103021.38;5035595;28;20375;-77
2022/03/27 02:13:25;;;;;;;;;;;;;;;21.41;37.15;103029.63;5055381;28;19963;-76
2022/03/27 02:15:51;;;;;;;;;;;;;;;21.39;37.09;103022.47;5072507;28;19917;-78
2022/03/27 02:18:16;;;;;;;;;;;;;;;21.41;36.89;103021.38;5056814;28;19921;-77
2022/03/27 02:20:44;;;;;;;;;;;;;;;21.40;37.18;103026.03;5056835;28;19917;-76
2022/03/27 02:23:09;;;;;;;;;;;;;;;21.39;37.21;103022.47;5056778;28;19968;-76
2022/03/27 02:25:34;;;;;;;;;;;;;;;21.39;37.13;103027.13;5072254;28;19928;-77
2022/03/27 02:28:00;;;;;;;;;;;;;;;21.39;36.96;103021.63;5056411;28;19970;-77
2022/03/27 02:30:25;;;;;;;;;;;;;;;21.39;37.12;103021.63;5039013;28;19917;-77
2022/03/27 02:32:51;;;;;;;;;;;;;;;21.38;36.96;103020.78;5057200;28;20375;-76
2022/03/27 02:35:16;;;;;;;;;;;;;;;21.38;37.09;103023.53;5056492;28;19921;-77
2022/03/27 02:37:41;;;;;;;;;;;;;;;21.39;36.89;103024.38;5056455;28;19927;-77
2022/03/27 02:40:07;;;;;;;;;;;;;;;21.38;37.21;103018.03;5056415;28;19928;-76
2022/03/27 02:42:32;;;;;;;;;;;;;;;21.38;37.08;103015.31;5056400;28;19972;-76
2022/03/27 02:44:57;;;;;;;;;;;;;;;21.38;37.08;103008.94;5056321;28;19975;-77
2022/03/27 02:47:23;;;;;;;;;;;;;;;21.38;37.09;103011.69;5055310;28;20262;-76
2022/03/27 02:49:48;;;;;;;;;;;;;;;21.36;36.94;103006.44;5056332;28;20297;-76
2022/03/27 02:52:13;;;;;;;;;;;;;;;21.37;37.17;103012.81;5055873;28;20055;-76
2022/03/27 02:54:39;;;;;;;;;;;;;;;21.37;37.10;103010.06;5038617;28;19921;-77
2022/03/27 02:57:04;;;;;;;;;;;;;;;21.37;36.98;103010.06;5056007;28;20337;-77
2022/03/27 02:59:29;;;;;;;;;;;;;;;21.37;37.09;103007.31;5071651;28;20336;-77
2022/03/27 03:01:55;;;;;;;;;;;;;;;21.35;37.10;103004.81;5072251;28;19917;-78
2022/03/27 03:04:20;;;;;;;;;;;;;;;21.36;37.01;102997.38;5038203;28;19921;-77
2022/03/27 03:06:46;;;;;;;;;;;;;;;21.35;37.20;103001.22;5055703;28;20389;-77
2022/03/27 03:09:11;;;;;;;;;;;;;;;21.36;37.23;103006.44;5055413;28;19927;-77
2022/03/27 03:11:37;;;;;;;;;;;;;;;21.35;37.09;103002.06;5071393;28;20007;-77
2022/03/27 03:14:02;;;;;;;;;;;;;;;21.35;37.01;102995.72;5056053;28;20395;-77
2022/03/27 03:16:28;;;;;;;;;;;;;;;21.35;37.15;103007.53;5055451;28;19927;-77
2022/03/27 03:18:53;;;;;;;;;;;;;;;21.35;37.22;103003.97;5055409;28;19935;-77
2022/03/27 03:21:20;;;;;;;;;;;;;;;21.35;37.21;103007.53;5037429;28;19924;-77
2022/03/27 03:23:45;;;;;;;;;;;;;;;21.33;37.15;103001.47;5055303;28;19947;-77
2022/03/27 03:26:10;;;;;;;;;;;;;;;21.35;37.24;103006.72;5037796;28;19988;-77
2022/03/27 03:28:36;;;;;;;;;;;;;;;21.34;37.03;103005.91;5070673;28;20373;-77
2022/03/27 03:31:01;;;;;;;;;;;;;;;21.34;37.16;103007.78;5037829;28;19924;-77
2022/03/27 03:33:26;;;;;;;;;;;;;;;21.33;37.22;103000.66;5055332;28;20383;-77
2022/03/27 03:35:52;;;;;;;;;;;;;;;21.33;37.24;103006.16;5070648;28;19928;-77
2022/03/27 03:38:17;;;;;;;;;;;;;;;21.33;37.29;103000.66;5055269;28;19974;-77
2022/03/27 03:40:43;;;;;;;;;;;;;;;21.33;37.18;102995.97;5071545;28;19916;-77
2022/03/27 03:43:10;;;;;;;;;;;;;;;21.33;37.11;103000.66;5070633;28;19921;-77
2022/03/27 03:45:35;;;;;;;;;;;;;;;21.32;37.23;102990.75;5055224;28;19921;-77
2022/03/27 03:48:00;;;;;;;;;;;;;;;21.33;37.12;102997.91;5055168;28;19917;-78
2022/03/27 03:50:26;;;;;;;;;;;;;;;21.32;37.30;102999.84;5055007;28;19940;-77
2022/03/27 03:52:52;;;;;;;;;;;;;;;21.32;37.07;102993.50;5070544;28;20443;-77
2022/03/27 03:55:17;;;;;;;;;;;;;;;21.31;37.13;102992.66;5055562;28;19952;-77
2022/03/27 03:57:43;;;;;;;;;;;;;;;21.31;37.05;102991.84;5070374;28;20001;-77
2022/03/27 04:00:08;;;;;;;;;;;;;;;21.31;37.10;102991.84;5054877;28;19970;-77
2022/03/27 04:02:33;;;;;;;;;;;;;;;21.32;37.30;102996.25;5070436;28;20277;-77
2022/03/27 04:05:01;;;;;;;;;;;;;;;21.31;37.18;102998.16;5037712;28;19925;-77
2022/03/27 04:07:26;;;;;;;;;;;;;;;21.30;37.26;102996.50;5054650;28;19920;-77
2022/03/27 04:09:52;;;;;;;;;;;;;;;21.30;37.27;103003.94;5054391;28;19943;-77
2022/03/27 04:12:17;;;;;;;;;;;;;;;21.31;37.30;103002.81;5070638;28;19921;-77
2022/03/27 04:14:43;;;;;;;;;;;;;;;21.29;37.21;103003.09;5053874;28;19947;-77
2022/03/27 04:17:09;;;;;;;;;;;;;;;21.29;37.34;102994.84;5054732;28;19920;-77
2022/03/27 04:19:34;;;;;;;;;;;;;;;21.29;37.43;102997.59;5054883;28;19917;-77
2022/03/27 04:21:59;;;;;;;;;;;;;;;21.29;37.21;103000.34;5054556;28;19928;-77
2022/03/27 04:24:25;;;;;;;;;;;;;;;21.29;37.24;102994.00;5070262;28;20023;-77
2022/03/27 04:26:50;;;;;;;;;;;;;;;21.29;37.26;102999.50;5069925;28;19921;-77
2022/03/27 04:29:15;;;;;;;;;;;;;;;21.29;37.37;102999.50;5036461;28;19929;-77
2022/03/27 04:31:41;;;;;;;;;;;;;;;21.29;37.11;102996.75;5054642;28;19970;-77
2022/03/27 04:34:07;;;;;;;;;;;;;;;21.28;37.09;102995.94;5054280;28;20292;-77
2022/03/27 04:36:32;;;;;;;;;;;;;;;21.29;37.07;102996.75;5053664;28;19921;-77
2022/03/27 04:38:58;;;;;;;;;;;;;;;21.28;37.41;103000.59;5054135;28;19924;-77
2022/03/27 04:41:24;;;;;;;;;;;;;;;21.28;37.25;102998.69;5054153;28;19917;-77
2022/03/27 04:43:49;;;;;;;;;;;;;;;21.27;37.48;102997.03;5054176;28;20038;-77
2022/03/27 04:46:15;;;;;;;;;;;;;;;21.28;37.19;102992.34;5036163;28;20288;-77
2022/03/27 04:48:40;;;;;;;;;;;;;;;21.27;37.15;102999.78;5054095;28;20326;-77
2022/03/27 04:51:05;;;;;;;;;;;;;;;21.29;37.11;103002.25;5054089;28;19928;-77
2022/03/27 04:53:31;;;;;;;;;;;;;;;21.27;37.39;102999.78;5036608;28;19920;-77
2022/03/27 04:55:56;;;;;;;;;;;;;;;21.28;37.28;103000.59;5069986;28;20045;-77
2022/03/27 04:58:21;;;;;;;;;;;;;;;21.27;37.39;103001.69;5053870;28;20369;-77
2022/03/27 05:00:46;;;;;;;;;;;;;;;21.27;37.34;102998.94;5053886;28;19921;-77
2022/03/27 05:03:12;;;;;;;;;;;;;;;21.28;37.25;103003.34;5069306;28;19971;-77
2022/03/27 05:05:38;;;;;;;;;;;;;;;21.26;37.59;102997.28;5053887;28;19928;-77
2022/03/27 05:08:03;;;;;;;;;;;;;;;21.27;37.42;103001.69;5053847;28;19921;-77
2022/03/27 05:10:28;;;;;;;;;;;;;;;21.27;37.40;103001.69;5069201;28;19921;-77
2022/03/27 05:12:54;;;;;;;;;;;;;;;21.26;37.27;103002.78;5053815;28;19921;-77
2022/03/27 05:15:19;;;;;;;;;;;;;;;21.26;37.50;103000.03;5053803;28;19984;-76
2022/03/27 05:17:48;;;;;;;;;;;;;;;21.25;37.35;103006.63;5035973;28;19917;-77
2022/03/27 05:20:14;;;;;;;;;;;;;;;21.25;37.64;103014.88;5053635;28;19917;-77
2022/03/27 05:22:40;;;;;;;;;;;;;;;21.24;37.36;103014.03;5053742;28;20004;-77
2022/03/27 05:25:06;;;;;;;;;;;;;;;21.25;37.40;103009.38;5036806;28;20019;-77
2022/03/27 05:27:31;;;;;;;;;;;;;;;21.24;37.51;103019.50;5036200;28;19967;-76
2022/03/27 05:29:56;;;;;;;;;;;;;;;21.25;37.25;103014.88;5054060;28;20363;-76
2022/03/27 05:32:22;;;;;;;;;;;;;;;21.24;37.23;103016.78;5054294;28;19920;-77
2022/03/27 05:34:47;;;;;;;;;;;;;;;21.23;37.22;103017.88;5052236;28;20365;-77
2022/03/27 05:37:13;;;;;;;;;;;;;;;21.23;37.47;103017.88;5053451;28;19920;-77
2022/03/27 05:39:39;;;;;;;;;;;;;;;21.23;37.39;103026.13;5053559;28;19928;-77
2022/03/27 05:42:04;;;;;;;;;;;;;;;21.24;37.39;103026.94;5053432;28;19921;-77
2022/03/27 05:44:29;;;;;;;;;;;;;;;21.23;37.43;103030.78;5053998;28;19959;-78
2022/03/27 05:46:54;;;;;;;;;;;;;;;21.23;37.28;103031.63;5070449;28;19953;-77
2022/03/27 05:49:20;;;;;;;;;;;;;;;21.23;37.56;103033.53;5073070;28;19929;-77
2022/03/27 05:51:45;;;;;;;;;;;;;;;21.23;37.55;103030.78;5039959;28;20365;-77
2022/03/27 05:54:10;;;;;;;;;;;;;;;21.23;37.28;103022.53;5056401;28;19979;-77
2022/03/27 05:56:36;;;;;;;;;;;;;;;21.22;37.25;103035.47;5039610;28;20328;-77
2022/03/27 05:59:01;;;;;;;;;;;;;;;21.22;37.50;103031.84;5072331;28;19920;-77
2022/03/27 06:01:26;;;;;;;;;;;;;;;21.22;37.42;103031.84;5057266;28;19925;-77
2022/03/27 06:03:51;;;;;;;;;;;;;;;21.22;37.33;103043.72;5039614;28;19916;-77
2022/03/27 06:06:17;;;;;;;;;;;;;;;21.22;37.42;103037.34;5039367;28;20302;-77
2022/03/27 06:08:43;;;;;;;;;;;;;;;21.21;37.40;103039.28;5072551;28;20335;-77
2022/03/27 06:11:08;;;;;;;;;;;;;;;21.22;37.63;103034.59;5072452;28;19921;-77
2022/03/27 06:13:34;;;;;;;;;;;;;;;21.22;37.40;103038.22;5055692;28;19925;-77
2022/03/27 06:15:59;;;;;;;;;;;;;;;21.21;37.59;103035.72;5072411;28;19974;-77
2022/03/27 06:18:25;;;;;;;;;;;;;;;21.22;37.52;103038.22;5056765;28;19920;-78
2022/03/27 06:20:50;;;;;;;;;;;;;;;21.22;37.59;103043.72;5057167;28;19917;-77
2022/03/27 06:23:16;;;;;;;;;;;;;;;21.22;37.49;103042.84;5072139;28;19924;-76
2022/03/27 06:25:41;;;;;;;;;;;;;;;21.23;37.40;103044.53;5056720;28;19921;-77
2022/03/27 06:28:06;;;;;;;;;;;;;;;21.22;37.22;103045.59;5071667;28;19971;-77
2022/03/27 06:30:35;;;;;;;;;;;;;;;21.22;37.55;103045.59;5057235;28;19928;-77
2022/03/27 06:33:01;;;;;;;;;;;;;;;21.22;37.47;103051.09;5056621;28;20365;-77
2022/03/27 06:35:27;;;;;;;;;;;;;;;21.23;37.33;103047.28;5056870;28;19971;-77
2022/03/27 06:37:52;;;;;;;;;;;;;;;21.22;37.61;103053.84;5056468;28;19952;-77
2022/03/27 06:40:19;;;;;;;;;;;;;;;21.21;37.74;103053.03;5056612;28;19924;-78
2022/03/27 06:42:45;;;;;;;;;;;;;;;21.22;37.50;103051.09;5056695;28;19917;-77
2022/03/27 06:45:14;;;;;;;;;;;;;;;21.21;37.31;103052.19;5056407;28;19917;-77
2022/03/27 06:47:40;;;;;;;;;;;;;;;21.21;37.57;103055.78;5055949;28;19943;-77
2022/03/27 06:50:06;;;;;;;;;;;;;;;21.22;37.57;103059.34;5055988;28;20312;-76
2022/03/27 06:52:32;;;;;;;;;;;;;;;21.22;37.52;103053.84;5056248;28;19921;-76
2022/03/27 06:54:58;;;;;;;;;;;;;;;21.22;37.57;103048.34;5039190;28;19927;-76
2022/03/27 06:57:23;;;;;;;;;;;;;;;21.21;37.33;103052.19;5071741;28;19924;-77
2022/03/27 07:05:16;;;;;;;;;;;;;;;21.22;37.50;103060.19;5056126;28;20418;-77
2022/03/27 07:07:42;;;;;;;;;;;;;;;21.22;37.61;103057.44;5054669;28;19921;-77
2022/03/27 07:10:08;;;;;;;;;;;;;;;21.22;37.49;103059.34;5038303;28;20273;-76
2022/03/27 07:12:33;;;;;;;;;;;;;;;21.23;37.38;103059.09;5056327;28;20349;-77
2022/03/27 07:14:58;;;;;;;;;;;;;;;21.23;37.67;103058.28;5055489;28;19975;-76
2022/03/27 07:17:23;;;;;;;;;;;;;;;21.23;37.63;103055.53;5037872;28;19928;-77
2022/03/27 07:19:49;;;;;;;;;;;;;;;21.24;37.28;103057.19;5055355;28;19968;-77
2022/03/27 07:22:15;;;;;;;;;;;;;;;21.24;37.65;103057.19;5071124;28;19963;-76
2022/03/27 07:24:41;;;;;;;;;;;;;;;21.24;37.54;103059.91;5037635;28;20027;-77
2022/03/27 07:27:06;;;;;;;;;;;;;;;21.25;37.47;103056.09;5056130;28;20357;-77
2022/03/27 07:29:32;;;;;;;;;;;;;;;21.23;37.47;103056.34;5037780;28;20015;-76
2022/03/27 07:31:58;;;;;;;;;;;;;;;21.24;37.71;103051.69;5070878;28;19920;-76
2022/03/27 07:34:23;;;;;;;;;;;;;;;21.24;37.55;103058.00;5055109;28;19917;-76
2022/03/27 07:36:48;;;;;;;;;;;;;;;21.24;37.58;103044.25;5070825;28;20272;-77
2022/03/27 07:39:13;;;;;;;;;;;;;;;21.25;37.51;103058.84;5055322;28;19921;-76
2022/03/27 07:41:39;;;;;;;;;;;;;;;21.24;37.58;103058.00;5055121;28;19925;-77
2022/03/27 07:44:05;;;;;;;;;;;;;;;21.24;37.56;103057.19;5055478;28;19921;-76
2022/03/27 07:46:30;;;;;;;;;;;;;;;21.24;37.32;103058.00;5055469;28;19932;-76
2022/03/27 07:48:56;;;;;;;;;;;;;;;21.24;37.51;103058.00;5055158;28;20007;-76
2022/03/27 07:51:21;;;;;;;;;;;;;;;21.24;37.68;103060.75;5055081;28;20276;-76
2022/03/27 07:53:46;;;;;;;;;;;;;;;21.25;37.66;103067.09;5055125;28;19917;-77
2022/03/27 07:56:11;;;;;;;;;;;;;;;21.25;37.66;103067.09;5070274;28;20276;-77
2022/03/27 07:58:37;;;;;;;;;;;;;;;21.24;37.48;103052.50;5037358;28;19920;-76
2022/03/27 08:01:02;;;;;;;;;;;;;;;21.24;37.72;103058.00;5054902;28;19921;-76
2022/03/27 08:03:28;;;;;;;;;;;;;;;21.24;37.70;103057.19;5054720;28;19921;-77
2022/03/27 08:05:53;;;;;;;;;;;;;;;21.24;37.55;103059.91;5055273;28;19923;-76
2022/03/27 08:08:18;;;;;;;;;;;;;;;21.24;37.48;103060.75;5070155;28;19921;-77
2022/03/27 08:10:44;;;;;;;;;;;;;;;21.24;37.78;103059.91;5035786;28;19927;-76
2022/03/27 08:13:09;;;;;;;;;;;;;;;21.24;37.70;103052.50;5054651;28;19925;-77
2022/03/27 08:15:34;;;;;;;;;;;;;;;21.24;37.64;103048.94;5054650;28;19971;-77
2022/03/27 08:18:00;;;;;;;;;;;;;;;21.23;37.81;103048.09;5054395;28;19920;-76
2022/03/27 08:20:26;;;;;;;;;;;;;;;21.24;37.49;103060.75;5054508;28;20422;-77
2022/03/27 08:22:51;;;;;;;;;;;;;;;21.25;37.47;103051.44;5054754;28;19924;-76
2022/03/27 08:26:55;;;;;;;;;;;;;;;21.24;37.75;103058.00;5054419;28;19917;-76
2022/03/27 08:28:02;;;;;;;;;;;;;;;21.25;37.58;103056.09;5053855;28;19928;-77
2022/03/27 08:30:28;;;;;;;;;;;;;;;21.25;37.71;103061.59;5054975;28;19925;-77
2022/03/27 08:32:53;;;;;;;;;;;;;;;21.24;37.54;103062.66;5054545;28;19925;-77
2022/03/27 08:35:18;;;;;;;;;;;;;;;21.24;37.60;103065.41;5054236;28;19996;-77
2022/03/27 08:37:44;;;;;;;;;;;;;;;21.24;37.79;103063.50;5052588;28;20006;-77
2022/03/27 08:40:09;;;;;;;;;;;;;;;21.24;37.80;103068.16;5036250;28;19924;-77
2022/03/27 08:42:35;;;;;;;;;;;;;;;21.25;37.72;103065.19;5054103;28;20361;-77
2022/03/27 08:45:00;;;;;;;;;;;;;;;21.25;37.73;103061.59;5054637;28;19975;-77
2022/03/27 08:47:26;;;;;;;;;;;;;;;21.24;37.72;103063.50;5069568;28;19920;-77
2022/03/27 08:49:54;;;;;;;;;;;;;;;21.25;37.59;103069.84;5053984;28;19982;-77
2022/03/27 08:52:21;;;;;;;;;;;;;;;21.25;37.90;103059.69;5054520;28;19921;-77
2022/03/27 08:54:49;;;;;;;;;;;;;;;21.25;37.74;103064.34;5053864;28;20369;-75
2022/03/27 08:57:27;;;;;;;;;;;;;;;21.25;37.73;103069.84;5036073;28;19917;-77
2022/03/27 08:59:53;;;;;;;;;;;;;;;21.24;37.58;103071.75;5035908;28;19916;-76
2022/03/27 09:02:22;;;;;;;;;;;;;;;21.24;37.79;103066.25;5053924;28;19924;-76
2022/03/27 09:04:49;;;;;;;;;;;;;;;21.25;37.79;103067.09;5053743;28;19916;-76
2022/03/27 09:07:14;;;;;;;;;;;;;;;21.24;37.64;103071.75;5053757;28;19928;-78
2022/03/27 09:09:39;;;;;;;;;;;;;;;21.24;37.94;103074.50;5069088;28;19925;-78
2022/03/27 09:12:05;;;;;;;;;;;;;;;21.25;37.96;103075.34;5054052;28;20400;-76
2022/03/27 09:14:34;;;;;;;;;;;;;;;21.24;37.98;103066.25;5053578;28;20321;-76
2022/03/27 09:17:03;;;;;;;;;;;;;;;21.24;38.00;103071.75;5035389;28;19924;-76
2022/03/27 09:19:43;;;;;;;;;;;;;;;21.25;37.75;103069.84;5053610;28;20377;-76
2022/03/27 09:22:13;;;;;;;;;;;;;;;21.24;38.00;103069.00;5057167;28;20009;-76
2022/03/27 09:24:38;;;;;;;;;;;;;;;21.24;37.98;103076.41;5060225;28;19960;-76
2022/03/27 09:27:05;;;;;;;;;;;;;;;21.24;37.84;103080.00;5060771;28;19920;-77
2022/03/27 09:29:32;;;;;;;;;;;;;;;21.25;37.97;103080.84;5042731;28;19935;-76
2022/03/27 09:31:58;;;;;;;;;;;;;;;21.25;37.97;103080.84;5042207;28;19947;-76
2022/03/27 09:34:23;;;;;;;;;;;;;;;21.25;38.19;103078.09;5059967;28;19924;-76
2022/03/27 09:36:50;;;;;;;;;;;;;;;21.26;37.91;103085.25;5060376;28;20317;-76
2022/03/27 09:39:16;;;;;;;;;;;;;;;21.25;38.11;103078.91;5042042;28;19924;-76
2022/03/27 09:42:02;;;;;;;;;;;;;;;21.26;38.05;103075.06;5041972;28;19917;-78
2022/03/27 09:44:36;;;;;;;;;;;;;;;21.26;37.99;103072.31;5060225;28;19924;-76
2022/03/27 09:47:04;;;;;;;;;;;;;;;21.25;38.21;103065.19;5075021;28;19940;-76
2022/03/27 09:49:35;;;;;;;;;;;;;;;21.26;38.15;103071.50;5059865;28;19917;-77
2022/03/27 09:52:04;;;;;;;;;;;;;;;21.26;38.27;103058.56;5060070;28;19995;-78
2022/03/27 09:54:43;;;;;;;;;;;;;;;21.27;38.47;103062.16;5060099;28;20023;-78
2022/03/27 09:57:27;;;;;;;;;;;;;;;21.28;38.43;103067.41;5041956;28;19924;-78
2022/03/27 09:59:53;;;;;;;;;;;;;;;21.28;38.52;103061.09;5042102;28;19917;-77
2022/03/27 10:02:20;;;;;;;;;;;;;;;21.29;38.41;103048.97;5059828;28;19963;-79
2022/03/27 10:04:53;;;;;;;;;;;;;;;21.31;38.45;103055.06;5060065;28;19917;-78
2022/03/27 10:07:18;;;;;;;;;;;;;;;21.30;38.36;103035.00;5041830;28;19920;-79
2022/03/27 10:09:44;;;;;;;;;;;;;;;21.31;38.40;103044.88;5075285;28;19928;-79
2022/03/27 10:12:09;;;;;;;;;;;;;;;21.32;38.46;103041.06;5059567;28;19924;-78
2022/03/27 10:14:35;;;;;;;;;;;;;;;21.32;38.43;103032.81;5059487;28;20443;-78
2022/03/27 10:17:01;;;;;;;;;;;;;;;21.32;38.47;103030.06;5041935;28;19920;-78
2022/03/27 10:19:33;;;;;;;;;;;;;;;21.32;38.24;103030.06;5041739;28;19921;-80
2022/03/27 10:22:00;;;;;;;;;;;;;;;21.33;38.48;103028.97;5059391;28;20357;-78
2022/03/27 10:24:28;;;;;;;;;;;;;;;21.34;38.20;103027.03;5059672;28;19917;-78
2022/03/27 10:26:55;;;;;;;;;;;;;;;21.33;38.63;103028.16;5060074;28;20003;-78
2022/03/27 10:29:23;;;;;;;;;;;;;;;21.34;38.41;103027.03;5075420;28;20313;-78
2022/03/27 10:31:48;;;;;;;;;;;;;;;21.33;38.32;103017.97;5042014;28;19921;-78
2022/03/27 10:34:14;;;;;;;;;;;;;;;21.34;38.57;103025.16;5056074;28;20368;-78
2022/03/27 10:36:56;;;;;;;;;;;;;;;21.34;38.55;103019.66;5056374;28;19951;-78
2022/03/27 10:39:43;;;;;;;;;;;;;;;21.34;38.19;103016.91;5056482;28;19916;-79
2022/03/27 10:42:14;;;;;;;;;;;;;;;21.36;38.62;103016.63;5057253;28;19963;-79
2022/03/27 10:44:39;;;;;;;;;;;;;;;21.36;38.42;103005.63;5056406;28;19982;-79
2022/03/27 10:47:10;;;;;;;;;;;;;;;21.36;38.69;103008.38;5055859;28;19924;-79
2022/03/27 10:49:36;;;;;;;;;;;;;;;21.36;38.43;103000.13;5056622;28;19917;-79
2022/03/27 10:52:05;;;;;;;;;;;;;;;21.36;38.53;103005.63;5056037;28;19943;-77
2022/03/27 10:54:31;;;;;;;;;;;;;;;21.36;38.39;103000.94;5038719;28;19940;-78
2022/03/27 10:56:57;;;;;;;;;;;;;;;21.37;38.44;103001.81;5038150;28;20380;-82
2022/03/27 10:59:26;;;;;;;;;;;;;;;21.38;38.28;102998.81;5054558;28;19921;-78
2022/03/27 11:01:53;;;;;;;;;;;;;;;21.37;38.31;102994.38;5055824;28;19916;-78
2022/03/27 11:04:25;;;;;;;;;;;;;;;21.38;38.48;102992.44;5038155;28;20312;-81
2022/03/27 11:07:12;;;;;;;;;;;;;;;21.39;38.47;102994.13;5056009;28;19978;-83
2022/03/27 11:09:44;;;;;;;;;;;;;;;21.39;38.55;102991.38;5038564;28;19931;-78
2022/03/27 11:12:24;;;;;;;;;;;;;;;21.38;38.05;102984.19;5055685;28;19913;-78
2022/03/27 11:14:53;;;;;;;;;;;;;;;21.39;38.22;102980.38;5055320;28;19917;-78
2022/03/27 11:17:30;;;;;;;;;;;;;;;21.39;38.18;102984.00;5037643;28;20361;-79
2022/03/27 11:19:56;;;;;;;;;;;;;;;21.39;38.17;102986.72;5038389;28;19916;-79
2022/03/27 11:22:40;;;;;;;;;;;;;;;21.40;38.30;102984.81;5055544;28;19923;-78
2022/03/27 11:25:22;;;;;;;;;;;;;;;21.39;38.47;102984.00;5055470;28;19917;-77
2022/03/27 11:28:03;;;;;;;;;;;;;;;21.40;38.36;102979.31;5037844;28;20277;-78
2022/03/27 11:30:28;;;;;;;;;;;;;;;21.39;38.16;102969.38;5055107;28;20023;-78
2022/03/27 11:33:13;;;;;;;;;;;;;;;21.40;38.08;102976.56;5055628;28;20368;-78
2022/03/27 11:36:02;;;;;;;;;;;;;;;21.39;38.48;102973.00;5055299;28;19916;-78
2022/03/27 11:38:29;;;;;;;;;;;;;;;21.39;38.30;102967.50;5037182;28;20350;-77
2022/03/27 11:40:55;;;;;;;;;;;;;;;21.40;38.22;102965.56;5037331;28;19960;-78
2022/03/27 11:43:34;;;;;;;;;;;;;;;21.39;38.21;102962.00;5055069;28;20403;-79
2022/03/27 11:46:00;;;;;;;;;;;;;;;21.40;38.38;102965.56;5054932;28;19917;-78
2022/03/27 11:48:26;;;;;;;;;;;;;;;21.39;38.41;102956.50;5071005;28;19920;-79
2022/03/27 11:50:55;;;;;;;;;;;;;;;21.39;38.25;102953.75;5037112;28;20011;-78
2022/03/27 11:53:30;;;;;;;;;;;;;;;21.41;38.10;102955.38;5037624;28;19992;-79
2022/03/27 11:56:03;;;;;;;;;;;;;;;21.40;38.25;102954.56;5055240;28;19940;-80
2022/03/27 11:58:28;;;;;;;;;;;;;;;21.40;38.11;102949.06;5037000;28;19967;-78
2022/03/27 12:00:54;;;;;;;;;;;;;;;21.41;38.14;102945.22;5070304;28;19952;-83
2022/03/27 12:03:23;;;;;;;;;;;;;;;21.42;38.35;102938.63;5054755;28;19928;-79
2022/03/27 12:05:49;;;;;;;;;;;;;;;21.41;38.30;102936.97;5054764;28;19951;-79
2022/03/27 12:08:17;;;;;;;;;;;;;;;21.41;38.29;102936.97;5037246;28;19966;-79
2022/03/27 12:10:45;;;;;;;;;;;;;;;21.42;38.15;102932.28;5054610;28;19932;-79
2022/03/27 12:13:11;;;;;;;;;;;;;;;21.41;38.22;102925.16;5054579;28;19921;-80
2022/03/27 12:15:40;;;;;;;;;;;;;;;21.40;38.33;102924.31;5036694;28;20003;-78
2022/03/27 12:18:05;;;;;;;;;;;;;;;21.40;38.28;102918.81;5036421;28;19916;-78
2022/03/27 12:21:00;;;;;;;;;;;;;;;21.41;38.23;102914.97;5054506;28;20023;-80
2022/03/27 12:23:28;;;;;;;;;;;;;;;21.41;38.04;102903.97;5023109;28;20296;-79
2022/03/27 12:25:59;;;;;;;;;;;;;;;21.43;38.28;102899.03;5054384;28;20023;-79
2022/03/27 12:31:39;;;;;;;;;;;;;;;21.43;38.27;102899.03;5054299;28;19971;-80
2022/03/27 12:34:04;;;;;;;;;;;;;;;21.45;38.32;102894.13;5041363;28;19913;-80
2022/03/27 12:36:29;;;;;;;;;;;;;;;21.46;38.08;102886.69;5069503;28;19928;-80
2022/03/27 12:38:54;;;;;;;;;;;;;;;21.46;38.03;102878.44;5036135;28;20473;-81
2022/03/27 12:41:39;;;;;;;;;;;;;;;21.46;38.38;102876.50;5069693;28;19947;-81
2022/03/27 12:44:05;;;;;;;;;;;;;;;21.47;38.25;102875.44;5053916;28;20376;-80
2022/03/27 12:46:31;;;;;;;;;;;;;;;21.47;38.02;102880.94;5053825;28;20063;-80